Airfield :
LOGIN :

Register | Disclaimer

   EN    FR    IT 

 










Legend :    VFR   Marginal VFR   IFR   Intensive IFR   Very Intensive IFR
Visi :
Ceiling :
>= 8 km
>= 3000ft
5 to 8 km
1000 to 3000 ft
1500m to 5 km
500 to 1000 ft
800 to 1500m
200 to 500 ft
< 800m
< 200 ft
Symbols :   Thunderstorms  Fog  Heavy snow  Heavy precipitations  Wind > 20 kt
SIGMETs :     Misc.  Thunderstorms  Icing  Turbulence  Mountain Waves  Volcanic Ashes







- Airport Elevation : 44 ft
- IATA code : SOU
- Download approach charts


EGHI - Southampton

CURRENT METAR :
  • 181720Z 14005KT 110V190 9999 FEW046 04/M03 Q1013

EXPIRED METARs :
  • 181650Z 14006KT 110V200 9999 FEW046 05/M03 Q1013
  • 181620Z 15007KT 110V190 9999 FEW046 05/M03 Q1013
  • 181550Z 14009KT 110V180 9999 FEW046 05/M04 Q1013
  • 181520Z 15008KT 110V200 9999 FEW040 06/M04 Q1014
  • 181450Z 15009KT 120V200 9999 FEW040 05/M04 Q1014

TAF TAF EGHI
Valid from the 18 at 18:00 until the 18 at 23:00 UTC


181658Z 1818/1823 15009KT 9999 SCT045
TEMPO 1818/1823 18015G25KT 7000 RA BKN012
PROB30
TEMPO 1818/1823 4000 +RA BKN008
ATIS : +44 23 8062 7103
No reported NOTAMs for that airfield.



MET'MAP, your aeronautical weather chart ! - Copyright ORBIFLY December 2007 - Disclaimer

ORBIFLY MET'MAP TEAM :

Programming & Development : Alexandra Zaïnal
Concept & Development : Baudouin d'Aumeries
Co-Development & Prog : Marc-Olivier Méhu
Technical & hardware support : Manuel Goepfert

Contact : metmap@orbifly.com




SOURCES & CREDITS :

   NOAA